Time;durP1;ratioP1;P1;durP2;ratioP2;P2;SDS_P1;SDS_P2;PMS_P1;PMS_P2;Temp;Humidity;BMP_temperature;BMP_pressure;BME280_temperature;BME280_humidity;BME280_pressure;Samples;Min_cycle;Max_cycle;Signal;HPM_P1;HPM_P2
2023/04/08 00:00:42;;;;;;;29.00;26.10;;;5.30;99.90;;;;;;5056940;28;20173;-43
2023/04/08 00:03:08;;;;;;;30.70;27.70;;;5.40;99.90;;;;;;5055292;28;20435;-42
2023/04/08 00:05:33;;;;;;;29.73;26.93;;;5.40;99.90;;;;;;5055659;28;20184;-42
2023/04/08 00:07:59;;;;;;;29.10;26.40;;;5.40;99.90;;;;;;5059034;28;20979;-45
2023/04/08 00:10:25;;;;;;;31.43;28.33;;;5.30;99.90;;;;;;5057934;28;20184;-42
2023/04/08 00:12:51;;;;;;;30.88;27.65;;;5.30;99.90;;;;;;5057793;28;20723;-43
2023/04/08 00:15:16;;;;;;;29.87;26.87;;;5.30;99.90;;;;;;5058205;28;20209;-43
2023/04/08 00:17:42;;;;;;;30.10;27.30;;;5.30;99.90;;;;;;5057514;28;20528;-45
2023/04/08 00:20:08;;;;;;;28.40;25.70;;;5.30;99.90;;;;;;5056388;28;20275;-42
2023/04/08 00:22:35;;;;;;;29.00;26.25;;;5.30;99.90;;;;;;5058016;28;20270;-42
2023/04/08 00:25:01;;;;;;;31.33;28.23;;;5.30;99.90;;;;;;5032743;28;20199;-43
2023/04/08 00:27:27;;;;;;;28.85;26.00;;;5.40;99.90;;;;;;5058199;28;20198;-45
2023/04/08 00:29:53;;;;;;;27.97;25.37;;;5.30;99.90;;;;;;5058656;28;20185;-45
2023/04/08 00:32:18;;;;;;;29.47;26.40;;;5.40;99.90;;;;;;5057855;28;20439;-42
2023/04/08 00:34:44;;;;;;;29.53;26.53;;;5.30;99.90;;;;;;5055906;28;20310;-43
2023/04/08 00:37:10;;;;;;;29.87;26.83;;;5.40;99.90;;;;;;5057598;28;20265;-46
2023/04/08 00:39:36;;;;;;;31.90;28.60;;;5.40;99.90;;;;;;5059198;28;20582;-42
2023/04/08 00:42:02;;;;;;;31.20;27.92;;;5.30;99.90;;;;;;5057268;28;20203;-43
2023/04/08 00:44:27;;;;;;;30.20;27.10;;;5.30;99.90;;;;;;5058062;28;20193;-42
2023/04/08 00:46:53;;;;;;;31.50;28.20;;;5.40;99.90;;;;;;5057781;28;20185;-43
2023/04/08 00:49:19;;;;;;;31.53;28.20;;;5.40;99.90;;;;;;5058490;28;20246;-45
2023/04/08 00:51:44;;;;;;;32.00;28.73;;;5.30;99.90;;;;;;5058140;28;20196;-44
2023/04/08 00:54:10;;;;;;;32.07;28.67;;;5.40;99.90;;;;;;5058523;28;20266;-47
2023/04/08 00:56:36;;;;;;;32.93;29.03;;;5.40;99.90;;;;;;5061109;28;20189;-42
2023/04/08 00:59:03;;;;;;;32.80;29.20;;;5.50;99.90;;;;;;5062060;28;20185;-44
2023/04/08 01:02:05;;;;;;;33.03;28.90;;;5.40;99.90;;;;;;5060625;28;20177;-44
2023/04/08 01:05:12;;;;;;;31.45;28.10;;;5.50;99.90;;;;;;5059515;28;20177;-45
2023/04/08 01:07:43;;;;;;;33.22;29.77;;;5.40;99.90;;;;;;5060306;28;20581;-43
2023/04/08 01:10:17;;;;;;;33.10;29.38;;;5.50;99.90;;;;;;5060995;28;20185;-41
2023/04/08 01:13:00;;;;;;;34.30;28.52;;;5.40;99.90;;;;;;5060497;28;20753;-46
2023/04/08 01:15:27;;;;;;;31.75;28.27;;;5.40;99.90;;;;;;5060165;28;20201;-46
2023/04/08 01:17:55;;;;;;;32.63;29.08;;;5.50;99.90;;;;;;5044587;28;20192;-43
2023/04/08 01:20:24;;;;;;;34.58;28.30;;;5.50;99.90;;;;;;5063034;28;20240;-45
2023/04/08 01:23:04;;;;;;;33.65;28.63;;;5.50;99.90;;;;;;5061930;28;20270;-45
2023/04/08 01:25:35;;;;;;;34.20;28.65;;;5.50;99.90;;;;;;5062244;28;20192;-43
2023/04/08 01:28:06;;;;;;;32.88;29.27;;;5.50;99.90;;;;;;5062124;28;20271;-42
2023/04/08 01:30:33;;;;;;;33.28;28.45;;;5.50;99.90;;;;;;5061978;28;20190;-44
2023/04/08 01:33:00;;;;;;;35.13;29.42;;;5.50;99.90;;;;;;5061909;28;20215;-44
2023/04/08 01:35:27;;;;;;;32.40;28.40;;;5.50;99.90;;;;;;5060195;28;20217;-46
2023/04/08 01:37:54;;;;;;;37.88;30.73;;;5.50;99.90;;;;;;5060892;28;20174;-48
2023/04/08 01:40:20;;;;;;;38.30;30.80;;;5.60;99.90;;;;;;5060573;28;20532;-46
2023/04/08 01:42:50;;;;;;;33.67;29.33;;;5.60;99.90;;;;;;5060262;28;20188;-46
2023/04/08 01:45:17;;;;;;;35.15;28.50;;;5.60;99.90;;;;;;5061955;28;20221;-48
2023/04/08 01:47:48;;;;;;;37.65;29.00;;;5.60;99.90;;;;;;5060541;28;20714;-47
2023/04/08 01:50:14;;;;;;;31.50;27.83;;;5.60;99.90;;;;;;5060629;28;20177;-45
2023/04/08 01:52:42;;;;;;;36.45;28.73;;;5.60;99.90;;;;;;5058321;28;20184;-46
2023/04/08 01:55:08;;;;;;;34.60;29.20;;;5.60;99.90;;;;;;5059811;28;20205;-52
2023/04/08 01:57:37;;;;;;;30.90;27.60;;;5.60;99.90;;;;;;5059319;28;20213;-50
2023/04/08 02:00:08;;;;;;;35.25;27.58;;;5.60;99.90;;;;;;5060647;28;20423;-49
2023/04/08 02:02:36;;;;;;;32.30;27.02;;;5.60;99.90;;;;;;5058835;28;20177;-49
2023/04/08 02:05:02;;;;;;;30.42;26.33;;;5.60;99.90;;;;;;5060846;28;20219;-47
2023/04/08 02:07:28;;;;;;;31.03;26.37;;;5.70;99.90;;;;;;5058547;28;20267;-46
2023/04/08 02:09:55;;;;;;;28.70;25.67;;;5.70;99.90;;;;;;5060920;28;20968;-47
2023/04/08 02:12:21;;;;;;;34.08;27.17;;;5.70;99.90;;;;;;5056392;28;21043;-45
2023/04/08 02:14:47;;;;;;;29.57;26.40;;;5.70;99.90;;;;;;5061544;28;20216;-49
2023/04/08 02:17:25;;;;;;;29.23;25.00;;;5.70;99.90;;;;;;5055222;28;20440;-45
2023/04/08 02:20:09;;;;;;;28.83;25.23;;;5.70;99.90;;;;;;5040403;28;20437;-49
2023/04/08 02:22:48;;;;;;;29.33;26.20;;;5.80;99.90;;;;;;5059883;28;20229;-48
2023/04/08 02:25:16;;;;;;;25.38;22.83;;;5.80;99.90;;;;;;5061184;28;20267;-46
2023/04/08 02:27:43;;;;;;;27.33;24.33;;;5.80;99.90;;;;;;5060019;28;20192;-47
2023/04/08 02:30:10;;;;;;;26.35;23.60;;;5.80;99.90;;;;;;5061529;28;20276;-43
2023/04/08 02:32:36;;;;;;;26.20;23.50;;;5.80;99.90;;;;;;5059948;28;20236;-42
2023/04/08 02:35:04;;;;;;;27.42;24.35;;;5.80;99.90;;;;;;5060881;28;20301;-41
2023/04/08 02:37:30;;;;;;;25.10;22.50;;;5.80;99.90;;;;;;5060266;28;20200;-43
2023/04/08 02:39:56;;;;;;;24.83;22.23;;;5.80;99.90;;;;;;5059448;28;20267;-42
2023/04/08 02:42:22;;;;;;;25.05;22.45;;;5.80;99.90;;;;;;5060735;28;20635;-44
2023/04/08 02:44:48;;;;;;;24.93;22.10;;;5.80;99.90;;;;;;5061277;28;20216;-43
2023/04/08 02:47:13;;;;;;;24.90;22.30;;;5.80;99.90;;;;;;5059663;28;20521;-47
2023/04/08 02:49:39;;;;;;;24.30;21.70;;;5.80;99.90;;;;;;5058222;28;20238;-45
2023/04/08 02:52:05;;;;;;;24.10;21.60;;;5.90;99.90;;;;;;5058798;28;20568;-52
2023/04/08 02:54:30;;;;;;;22.83;20.50;;;5.90;99.90;;;;;;5057425;28;20205;-43
2023/04/08 02:56:56;;;;;;;24.03;21.67;;;5.90;99.90;;;;;;5058592;28;20232;-43
2023/04/08 02:59:21;;;;;;;23.87;21.57;;;5.80;99.90;;;;;;5059043;28;20292;-43
2023/04/08 03:01:47;;;;;;;23.20;20.83;;;5.90;99.90;;;;;;5057172;28;20254;-43
2023/04/08 03:04:13;;;;;;;23.93;21.57;;;5.90;99.90;;;;;;5059385;28;20231;-45
2023/04/08 03:06:38;;;;;;;22.87;20.57;;;5.90;99.90;;;;;;5055750;28;20336;-44
2023/04/08 03:09:07;;;;;;;22.37;20.23;;;5.90;99.90;;;;;;5058968;28;20242;-43
2023/04/08 03:11:33;;;;;;;23.35;21.02;;;5.90;99.90;;;;;;5057324;28;20451;-42
2023/04/08 03:13:59;;;;;;;21.83;19.63;;;6.00;99.90;;;;;;5058969;28;20181;-42
2023/04/08 03:16:25;;;;;;;21.90;19.67;;;6.00;99.90;;;;;;5058828;28;20204;-44
2023/04/08 03:18:50;;;;;;;22.45;20.45;;;5.90;99.90;;;;;;5056458;28;20185;-42
2023/04/08 03:21:16;;;;;;;22.23;20.03;;;5.90;99.90;;;;;;5058850;28;20181;-44
2023/04/08 03:23:42;;;;;;;22.20;20.02;;;6.00;99.90;;;;;;5054974;28;20859;-45
2023/04/08 03:26:08;;;;;;;19.77;17.90;;;6.00;99.90;;;;;;5058973;28;20192;-44
2023/04/08 03:28:33;;;;;;;20.83;18.73;;;6.00;99.90;;;;;;5058074;28;20663;-45
2023/04/08 03:31:02;;;;;;;22.20;19.93;;;6.00;99.90;;;;;;5059730;28;20209;-44
2023/04/08 03:33:27;;;;;;;21.20;19.25;;;6.00;99.90;;;;;;5055444;28;20178;-42
2023/04/08 03:35:54;;;;;;;22.23;20.03;;;6.00;99.90;;;;;;5056412;28;20220;-43
2023/04/08 03:38:20;;;;;;;20.58;18.67;;;6.00;99.90;;;;;;5058119;28;20194;-42
2023/04/08 03:40:45;;;;;;;20.67;18.83;;;6.00;99.90;;;;;;5056307;28;20191;-48
2023/04/08 03:43:11;;;;;;;21.20;19.40;;;5.90;99.90;;;;;;5056466;28;20763;-42
2023/04/08 03:45:37;;;;;;;20.40;18.60;;;6.00;99.90;;;;;;5055599;28;20188;-45
2023/04/08 03:48:03;;;;;;;20.23;18.47;;;6.00;99.90;;;;;;5054376;28;20635;-49
2023/04/08 03:50:29;;;;;;;20.70;18.65;;;6.00;99.90;;;;;;5058457;28;20445;-48
2023/04/08 03:52:54;;;;;;;20.20;18.40;;;6.00;99.90;;;;;;5058511;28;20550;-47
2023/04/08 03:55:20;;;;;;;20.83;18.73;;;6.00;99.90;;;;;;5056428;28;20393;-48
2023/04/08 03:57:46;;;;;;;21.00;19.03;;;6.10;99.90;;;;;;5056848;28;20175;-45
2023/04/08 04:00:12;;;;;;;18.87;17.27;;;6.10;99.90;;;;;;5055932;28;20898;-46
2023/04/08 04:02:37;;;;;;;19.50;17.80;;;6.00;99.90;;;;;;5058563;28;20196;-46
2023/04/08 04:05:03;;;;;;;19.87;18.03;;;6.00;99.90;;;;;;5059047;28;20189;-47
2023/04/08 04:07:29;;;;;;;18.87;17.37;;;6.00;99.90;;;;;;5057790;28;20304;-45
2023/04/08 04:09:55;;;;;;;19.40;17.70;;;6.00;99.90;;;;;;5058211;28;20501;-45
2023/04/08 04:12:22;;;;;;;19.27;17.55;;;6.10;99.90;;;;;;5057703;28;20195;-50
2023/04/08 04:14:47;;;;;;;20.17;18.40;;;6.00;99.90;;;;;;5058230;28;20570;-50
2023/04/08 04:17:13;;;;;;;18.63;17.17;;;6.10;99.90;;;;;;5057959;28;20181;-52
2023/04/08 04:19:39;;;;;;;19.50;17.67;;;6.10;99.90;;;;;;5058510;28;20185;-48
2023/04/08 04:22:04;;;;;;;18.95;17.23;;;6.10;99.90;;;;;;5057567;28;20411;-49
2023/04/08 04:24:30;;;;;;;18.30;16.60;;;6.00;99.90;;;;;;5058809;28;20732;-47
2023/04/08 04:26:56;;;;;;;19.50;17.77;;;6.10;99.90;;;;;;5057158;28;20570;-47
2023/04/08 04:29:21;;;;;;;19.20;17.47;;;6.10;99.90;;;;;;5057440;28;20186;-49
2023/04/08 04:31:47;;;;;;;18.57;16.97;;;6.10;99.90;;;;;;5057956;28;20193;-45
2023/04/08 04:34:12;;;;;;;19.17;17.60;;;6.10;99.90;;;;;;5058997;28;20211;-46
2023/04/08 04:36:38;;;;;;;20.43;18.63;;;6.10;99.90;;;;;;5057490;28;20769;-53
2023/04/08 04:39:03;;;;;;;19.33;17.67;;;6.10;99.90;;;;;;5058824;28;20208;-48
2023/04/08 04:41:29;;;;;;;19.93;18.20;;;6.10;99.90;;;;;;5058484;28;20255;-49
2023/04/08 04:43:55;;;;;;;19.97;18.27;;;6.00;99.90;;;;;;5057990;28;20185;-48
2023/04/08 04:46:21;;;;;;;21.03;18.83;;;6.00;99.90;;;;;;5056970;28;20212;-48
2023/04/08 04:48:46;;;;;;;20.90;19.00;;;6.00;99.90;;;;;;5057681;28;20861;-46
2023/04/08 04:51:12;;;;;;;20.57;18.77;;;6.00;99.90;;;;;;5057177;28;20173;-50
2023/04/08 04:53:37;;;;;;;20.07;18.33;;;6.00;99.90;;;;;;5056568;28;20202;-47
2023/04/08 04:56:03;;;;;;;19.90;18.00;;;6.00;99.90;;;;;;5036573;28;20537;-48
2023/04/08 04:58:29;;;;;;;20.10;18.37;;;6.00;99.90;;;;;;5057376;28;20173;-47
2023/04/08 05:00:55;;;;;;;19.50;17.80;;;5.90;99.90;;;;;;5056430;28;20257;-49
2023/04/08 05:03:21;;;;;;;20.92;18.83;;;6.00;99.90;;;;;;5057856;28;20277;-49
2023/04/08 05:05:51;;;;;;;21.40;19.40;;;6.00;99.90;;;;;;5057147;28;20473;-46
2023/04/08 05:08:17;;;;;;;21.35;19.27;;;6.10;99.90;;;;;;5055930;28;20179;-44
2023/04/08 05:10:42;;;;;;;19.97;18.20;;;6.10;99.90;;;;;;5057389;28;20635;-49
2023/04/08 05:13:08;;;;;;;21.33;19.50;;;6.10;99.90;;;;;;5057385;28;20200;-48
2023/04/08 05:15:34;;;;;;;20.70;18.80;;;6.10;99.90;;;;;;5056652;28;20223;-46
2023/04/08 05:18:00;;;;;;;19.88;18.17;;;6.10;99.90;;;;;;5055992;28;20212;-46
2023/04/08 05:20:25;;;;;;;19.83;17.97;;;6.10;99.90;;;;;;5055513;28;20875;-45
2023/04/08 05:22:51;;;;;;;19.60;17.90;;;6.10;99.90;;;;;;5055824;28;20234;-48
2023/04/08 05:25:16;;;;;;;20.60;18.80;;;6.20;99.90;;;;;;5054855;28;20199;-46
2023/04/08 05:27:42;;;;;;;20.40;18.50;;;6.20;99.90;;;;;;5057741;28;20186;-50
2023/04/08 05:30:08;;;;;;;18.97;17.17;;;6.20;99.90;;;;;;5058218;28;20579;-45
2023/04/08 05:32:34;;;;;;;18.35;16.95;;;6.20;99.90;;;;;;5056236;28;20255;-49
2023/04/08 05:35:04;;;;;;;19.77;17.97;;;6.30;99.90;;;;;;5058833;28;20221;-49
2023/04/08 05:37:30;;;;;;;18.23;16.52;;;6.30;99.90;;;;;;5038016;28;20215;-50
2023/04/08 05:39:55;;;;;;;18.43;16.90;;;6.30;99.90;;;;;;5058372;28;20191;-46
2023/04/08 05:42:21;;;;;;;18.40;16.83;;;6.30;99.90;;;;;;5055345;28;20222;-46
2023/04/08 05:44:47;;;;;;;19.90;18.20;;;6.30;99.90;;;;;;5056692;28;20195;-47
2023/04/08 05:47:13;;;;;;;20.63;18.70;;;6.30;99.90;;;;;;5060463;28;20400;-50
2023/04/08 05:49:39;;;;;;;19.02;17.42;;;6.40;99.90;;;;;;5061413;28;20186;-46
2023/04/08 05:52:05;;;;;;;20.05;18.05;;;6.40;99.90;;;;;;5060840;28;20190;-49
2023/04/08 05:54:31;;;;;;;17.50;16.20;;;6.50;99.90;;;;;;5060734;28;20201;-49
2023/04/08 05:56:57;;;;;;;19.57;17.87;;;6.50;99.90;;;;;;5061008;28;20288;-49
2023/04/08 05:59:23;;;;;;;20.57;18.67;;;6.40;99.90;;;;;;5059497;28;20440;-48
2023/04/08 06:01:49;;;;;;;18.67;17.27;;;6.50;99.90;;;;;;5059150;28;20923;-51
2023/04/08 06:04:16;;;;;;;18.03;16.67;;;6.50;99.90;;;;;;5059560;28;20192;-49
2023/04/08 06:06:42;;;;;;;18.52;17.02;;;6.60;99.90;;;;;;5061916;28;21220;-51
2023/04/08 06:09:08;;;;;;;18.33;16.93;;;6.60;99.90;;;;;;5062228;28;20180;-48
2023/04/08 06:11:34;;;;;;;18.80;17.20;;;6.60;99.90;;;;;;5061452;28;20504;-44
2023/04/08 06:14:00;;;;;;;18.10;16.70;;;6.60;99.90;;;;;;5061755;28;20856;-46
2023/04/08 06:16:26;;;;;;;18.00;16.50;;;6.60;99.90;;;;;;5061553;28;20963;-50
2023/04/08 06:18:51;;;;;;;19.30;17.47;;;6.70;99.90;;;;;;5060932;28;20979;-46
2023/04/08 06:21:17;;;;;;;17.50;15.97;;;6.80;99.90;;;;;;5060265;28;20195;-48
2023/04/08 06:23:43;;;;;;;17.90;16.40;;;6.80;99.90;;;;;;5060103;28;20591;-51
2023/04/08 06:26:09;;;;;;;16.77;15.30;;;6.90;99.90;;;;;;5061996;28;20920;-49
2023/04/08 06:28:34;;;;;;;17.87;16.47;;;7.00;99.90;;;;;;5059859;28;20185;-49
2023/04/08 06:31:00;;;;;;;17.73;16.33;;;7.00;99.90;;;;;;5061448;28;20924;-44
2023/04/08 06:33:26;;;;;;;18.17;16.77;;;7.00;99.90;;;;;;5061834;28;20214;-45
2023/04/08 06:36:00;;;;;;;18.47;17.00;;;7.10;99.90;;;;;;5059938;28;20202;-47
2023/04/08 06:38:25;;;;;;;18.30;16.83;;;7.20;99.90;;;;;;5059577;28;20180;-46
2023/04/08 06:40:51;;;;;;;17.70;16.30;;;7.30;99.90;;;;;;5059959;28;21118;-47
2023/04/08 06:43:16;;;;;;;18.60;17.27;;;7.40;99.90;;;;;;5060454;28;20173;-48
2023/04/08 06:45:42;;;;;;;19.07;17.67;;;7.50;99.90;;;;;;5061092;28;20180;-50
2023/04/08 06:48:08;;;;;;;17.60;16.17;;;7.50;99.90;;;;;;5042870;28;20192;-47
2023/04/08 06:50:33;;;;;;;18.00;16.60;;;7.50;99.90;;;;;;5060237;28;20191;-45
2023/04/08 06:52:59;;;;;;;18.47;17.07;;;7.60;99.90;;;;;;5060399;28;20435;-49
2023/04/08 06:55:25;;;;;;;18.50;16.90;;;7.70;99.90;;;;;;5060949;28;20208;-45
2023/04/08 06:57:50;;;;;;;19.20;17.60;;;7.60;99.90;;;;;;5061431;28;20173;-44
2023/04/08 07:00:16;;;;;;;19.67;17.97;;;7.50;99.90;;;;;;5061093;28;20528;-45
2023/04/08 07:02:42;;;;;;;18.07;16.67;;;7.50;99.90;;;;;;5060912;28;20234;-44
2023/04/08 07:05:07;;;;;;;19.70;17.90;;;7.40;99.90;;;;;;5042389;28;20445;-45
2023/04/08 07:07:33;;;;;;;18.90;17.30;;;7.30;99.90;;;;;;5060332;28;20275;-46
2023/04/08 07:09:59;;;;;;;20.37;18.50;;;7.30;99.90;;;;;;5042551;28;20191;-47
2023/04/08 07:12:24;;;;;;;22.37;20.40;;;7.30;99.90;;;;;;5059146;28;20419;-46
2023/04/08 07:14:50;;;;;;;21.17;19.27;;;7.30;99.90;;;;;;5060070;28;20746;-42
2023/04/08 07:17:16;;;;;;;24.23;22.23;;;7.40;99.90;;;;;;5060887;28;20181;-43
2023/04/08 07:19:42;;;;;;;25.20;22.73;;;7.40;99.90;;;;;;5060138;28;20505;-42
2023/04/08 07:22:08;;;;;;;25.40;23.20;;;7.50;99.90;;;;;;5042884;28;20856;-44
2023/04/08 07:24:34;;;;;;;25.30;22.80;;;7.60;99.90;;;;;;5060568;28;21266;-42
2023/04/08 07:27:00;;;;;;;24.63;22.23;;;7.70;99.90;;;;;;5060608;28;20312;-42
2023/04/08 07:29:26;;;;;;;24.97;22.57;;;7.80;99.90;;;;;;5060446;28;20184;-44
2023/04/08 07:31:52;;;;;;;25.47;23.07;;;7.80;99.90;;;;;;5060370;28;20434;-44
2023/04/08 07:34:18;;;;;;;25.30;22.80;;;7.90;99.90;;;;;;5059386;28;20477;-48
2023/04/08 07:36:44;;;;;;;23.30;21.27;;;7.90;99.90;;;;;;5058014;28;20830;-44
2023/04/08 07:39:10;;;;;;;24.90;22.70;;;8.00;99.90;;;;;;5060224;28;20234;-47
2023/04/08 07:41:35;;;;;;;24.40;22.10;;;8.10;99.90;;;;;;5060420;28;20864;-47
2023/04/08 07:44:01;;;;;;;24.53;22.27;;;8.20;99.90;;;;;;5059316;28;20263;-45
2023/04/08 07:46:26;;;;;;;23.00;20.80;;;8.20;99.90;;;;;;5060139;28;20173;-48
2023/04/08 07:48:52;;;;;;;22.23;20.33;;;8.30;99.90;;;;;;5060293;28;20209;-48
2023/04/08 07:51:18;;;;;;;22.63;20.63;;;8.30;99.90;;;;;;5060055;28;20502;-49
2023/04/08 07:53:43;;;;;;;22.97;21.00;;;8.30;99.90;;;;;;5060404;28;20177;-49
2023/04/08 07:56:17;;;;;;;21.70;19.80;;;8.40;99.90;;;;;;5059753;28;20335;-50
2023/04/08 07:58:42;;;;;;;20.93;19.13;;;8.40;99.90;;;;;;5060236;28;20181;-47
2023/04/08 08:01:19;;;;;;;23.83;21.80;;;8.50;99.90;;;;;;5059123;28;20741;-49
2023/04/08 08:03:46;;;;;;;22.57;20.60;;;8.50;99.90;;;;;;5059418;28;20184;-47
2023/04/08 08:06:12;;;;;;;22.97;21.00;;;8.60;99.90;;;;;;5060007;28;20419;-50
2023/04/08 08:08:37;;;;;;;20.47;18.67;;;8.60;99.90;;;;;;5059364;28;20952;-45
2023/04/08 08:11:03;;;;;;;20.27;18.60;;;8.60;99.90;;;;;;5059778;28;20185;-44
2023/04/08 08:13:29;;;;;;;19.60;18.00;;;8.70;99.90;;;;;;5059888;28;20181;-50
2023/04/08 08:15:54;;;;;;;21.40;19.77;;;8.70;99.90;;;;;;5059432;28;20211;-48
2023/04/08 08:18:20;;;;;;;22.47;20.60;;;8.80;99.90;;;;;;5060216;28;20189;-47
2023/04/08 08:20:46;;;;;;;21.40;19.60;;;8.90;99.90;;;;;;5059094;28;20260;-46
2023/04/08 08:23:11;;;;;;;21.63;20.00;;;9.10;99.90;;;;;;5060021;28;20704;-46
2023/04/08 08:25:37;;;;;;;20.50;19.00;;;9.10;99.90;;;;;;5057517;28;20271;-44
2023/04/08 08:28:03;;;;;;;21.53;19.93;;;9.20;99.90;;;;;;5059012;28;20271;-44
2023/04/08 08:30:28;;;;;;;20.90;19.27;;;9.20;99.90;;;;;;5059419;28;20233;-44
2023/04/08 08:32:55;;;;;;;20.90;19.30;;;9.20;99.90;;;;;;5059398;28;20185;-43
2023/04/08 08:35:20;;;;;;;21.23;19.63;;;9.20;99.90;;;;;;5059505;28;20215;-43
2023/04/08 08:37:46;;;;;;;19.40;17.90;;;9.20;99.90;;;;;;5059772;28;20425;-44
2023/04/08 08:40:13;;;;;;;20.37;18.60;;;9.20;99.90;;;;;;5059260;28;20207;-44
2023/04/08 08:42:39;;;;;;;20.80;19.10;;;9.30;99.90;;;;;;5059187;28;20711;-45
2023/04/08 08:45:05;;;;;;;20.60;19.00;;;9.30;99.90;;;;;;5059085;28;20525;-41
2023/04/08 08:47:31;;;;;;;21.07;19.47;;;9.30;99.90;;;;;;5059429;28;20412;-43
2023/04/08 08:49:57;;;;;;;21.33;19.63;;;9.40;99.90;;;;;;5058034;28;20442;-47
2023/04/08 08:52:23;;;;;;;21.03;19.33;;;9.50;99.90;;;;;;5057645;28;20274;-44
2023/04/08 08:54:58;;;;;;;19.50;18.00;;;9.60;99.90;;;;;;5058058;28;20204;-43
2023/04/08 08:57:24;;;;;;;20.60;19.07;;;9.70;99.90;;;;;;5058829;28;20417;-50
2023/04/08 08:59:50;;;;;;;20.30;18.80;;;9.90;99.90;;;;;;5058716;28;20402;-48
2023/04/08 09:02:30;;;;;;;20.23;18.73;;;10.00;99.90;;;;;;5050686;28;20479;-46
2023/04/08 09:05:03;;;;;;;19.60;18.00;;;10.00;99.90;;;;;;5057160;28;20183;-49
2023/04/08 09:07:34;;;;;;;21.03;19.33;;;10.10;99.90;;;;;;5057208;28;20505;-49
2023/04/08 09:09:59;;;;;;;20.07;18.47;;;10.10;99.90;;;;;;5059466;28;20504;-49
2023/04/08 09:12:27;;;;;;;20.80;19.10;;;10.10;99.90;;;;;;5060234;28;20445;-46
2023/04/08 09:15:09;;;;;;;21.40;19.70;;;10.10;99.90;;;;;;5062903;28;20552;-49
2023/04/08 09:17:37;;;;;;;20.90;19.20;;;10.10;99.90;;;;;;5063440;28;20450;-48
2023/04/08 09:20:14;;;;;;;21.60;19.90;;;10.20;99.90;;;;;;5061785;28;20509;-47
2023/04/08 09:22:58;;;;;;;21.97;20.17;;;10.30;99.90;;;;;;5063248;28;20485;-48
2023/04/08 09:25:26;;;;;;;21.03;19.33;;;10.40;99.90;;;;;;5061873;28;20526;-49
2023/04/08 09:27:52;;;;;;;22.37;20.47;;;10.50;99.90;;;;;;5060972;28;20502;-51
2023/04/08 09:30:20;;;;;;;21.87;20.07;;;10.60;99.90;;;;;;5062758;28;20442;-52
2023/04/08 09:32:53;;;;;;;21.60;19.90;;;10.60;99.90;;;;;;5062980;28;21580;-47
2023/04/08 09:35:20;;;;;;;20.83;19.13;;;10.80;99.90;;;;;;5063115;28;20561;-48
2023/04/08 09:37:47;;;;;;;22.00;20.20;;;10.90;99.90;;;;;;5062888;28;20456;-49
2023/04/08 09:40:15;;;;;;;21.10;19.40;;;10.90;99.90;;;;;;5061781;28;20423;-47
2023/04/08 09:42:49;;;;;;;21.70;20.00;;;11.10;99.90;;;;;;5059373;28;20748;-50
2023/04/08 09:45:16;;;;;;;21.60;19.80;;;11.20;99.90;;;;;;5062337;28;20491;-47
2023/04/08 09:47:57;;;;;;;21.93;20.07;;;11.20;99.90;;;;;;5063284;28;20415;-48
2023/04/08 09:50:46;;;;;;;21.80;20.00;;;11.30;99.90;;;;;;5062346;28;20423;-48
2023/04/08 09:53:29;;;;;;;20.70;19.07;;;11.40;99.90;;;;;;5062530;28;20442;-50
2023/04/08 09:55:57;;;;;;;21.13;19.40;;;11.40;99.90;;;;;;5061604;28;20842;-46
2023/04/08 09:58:28;;;;;;;22.07;20.17;;;11.40;99.90;;;;;;5061680;28;20435;-47
2023/04/08 10:00:54;;;;;;;20.87;19.07;;;11.40;99.90;;;;;;5063158;28;20855;-49
2023/04/08 10:03:30;;;;;;;21.77;20.07;;;11.30;99.90;;;;;;5062808;28;21266;-48
2023/04/08 10:06:00;;;;;;;22.93;21.03;;;11.30;99.90;;;;;;5063019;28;20477;-50
2023/04/08 10:08:26;;;;;;;23.03;21.03;;;11.30;99.90;;;;;;5062353;28;20441;-46
2023/04/08 10:10:53;;;;;;;22.07;20.20;;;11.50;99.90;;;;;;5060589;28;20471;-51
2023/04/08 10:13:20;;;;;;;22.33;20.43;;;11.50;99.90;;;;;;5060863;28;20473;-50
2023/04/08 10:15:46;;;;;;;21.30;19.70;;;11.50;99.90;;;;;;5062999;28;20455;-46
2023/04/08 10:18:13;;;;;;;23.17;21.07;;;11.40;99.90;;;;;;5062644;28;20480;-44
2023/04/08 10:20:39;;;;;;;21.97;20.17;;;11.30;99.90;;;;;;5062669;28;20438;-42
2023/04/08 10:23:14;;;;;;;22.07;20.27;;;11.00;99.90;;;;;;5062293;28;20831;-43
2023/04/08 10:25:44;;;;;;;21.60;19.90;;;10.80;99.90;;;;;;5061906;28;20596;-45
2023/04/08 10:28:10;;;;;;;21.87;20.07;;;10.70;99.90;;;;;;5062431;28;20419;-45
2023/04/08 10:30:49;;;;;;;21.57;19.67;;;10.60;99.90;;;;;;5061558;28;20817;-40
2023/04/08 10:33:15;;;;;;;19.97;18.27;;;10.60;99.90;;;;;;5062224;28;20180;-43
2023/04/08 10:35:46;;;;;;;21.90;20.00;;;10.60;99.90;;;;;;5061262;28;21280;-43
2023/04/08 10:38:13;;;;;;;21.10;19.40;;;10.60;99.90;;;;;;5061593;28;20177;-44
2023/04/08 10:40:41;;;;;;;27.37;24.93;;;10.70;99.90;;;;;;5061618;28;20455;-43
2023/04/08 10:43:13;;;;;;;22.50;20.53;;;10.90;99.90;;;;;;5060189;28;20446;-49
2023/04/08 10:45:40;;;;;;;20.90;19.20;;;10.90;99.90;;;;;;5060621;28;20443;-44
2023/04/08 10:48:12;;;;;;;21.87;19.97;;;10.90;99.90;;;;;;5061664;28;20431;-48
2023/04/08 10:50:37;;;;;;;19.53;17.87;;;11.00;99.90;;;;;;5062636;28;20424;-50
2023/04/08 10:53:04;;;;;;;22.67;20.77;;;11.00;99.90;;;;;;5062227;28;20524;-52
2023/04/08 10:55:30;;;;;;;21.80;20.10;;;11.00;99.90;;;;;;5062123;28;20219;-47
2023/04/08 10:58:08;;;;;;;20.00;18.50;;;11.00;99.90;;;;;;5062112;28;20426;-48
2023/04/08 11:00:36;;;;;;;20.03;18.37;;;11.10;99.90;;;;;;5061921;28;20419;-47
2023/04/08 11:03:10;;;;;;;20.17;18.47;;;11.20;99.90;;;;;;5061642;28;20427;-47
2023/04/08 11:05:37;;;;;;;20.37;18.70;;;11.20;99.90;;;;;;5034224;28;20458;-51
2023/04/08 11:08:06;;;;;;;19.07;17.57;;;11.20;99.90;;;;;;5062098;28;20434;-53
2023/04/08 11:10:37;;;;;;;21.13;19.50;;;11.20;99.90;;;;;;5059491;28;20950;-50
2023/04/08 11:13:11;;;;;;;21.17;19.47;;;11.10;99.90;;;;;;5061278;28;20438;-45
2023/04/08 11:15:37;;;;;;;21.23;19.43;;;11.00;99.90;;;;;;5061746;28;20921;-47
2023/04/08 11:18:05;;;;;;;22.03;20.20;;;11.00;99.90;;;;;;5061929;28;20403;-48
2023/04/08 11:20:34;;;;;;;22.43;20.63;;;11.10;99.90;;;;;;5062027;28;21140;-45
2023/04/08 11:23:00;;;;;;;21.87;20.10;;;11.10;99.90;;;;;;5060791;28;20471;-51
2023/04/08 11:25:26;;;;;;;22.17;20.30;;;11.10;99.90;;;;;;5061940;28;20438;-50
2023/04/08 11:27:53;;;;;;;23.30;21.40;;;11.00;99.90;;;;;;5061779;28;20184;-48
2023/04/08 11:30:19;;;;;;;22.43;20.53;;;10.90;99.90;;;;;;5061869;28;20470;-49
2023/04/08 11:32:45;;;;;;;22.40;20.50;;;10.80;99.90;;;;;;5061702;28;20416;-47
2023/04/08 11:35:10;;;;;;;24.10;22.03;;;10.70;99.90;;;;;;5060920;28;20462;-48
2023/04/08 11:37:40;;;;;;;24.33;22.13;;;10.70;99.90;;;;;;5061653;28;20928;-50
2023/04/08 11:40:23;;;;;;;24.63;22.53;;;10.60;99.90;;;;;;5060345;28;20231;-45
2023/04/08 11:42:50;;;;;;;24.40;22.20;;;10.60;99.90;;;;;;5042307;28;20501;-49
2023/04/08 11:45:18;;;;;;;26.37;24.07;;;10.60;99.90;;;;;;5061382;28;21567;-45
2023/04/08 11:47:44;;;;;;;26.90;24.30;;;10.60;99.90;;;;;;5061840;28;20513;-45
2023/04/08 11:50:10;;;;;;;26.53;24.17;;;10.50;99.90;;;;;;5061225;28;20502;-43
2023/04/08 11:52:44;;;;;;;25.53;23.33;;;10.40;99.90;;;;;;5042504;28;20525;-44
2023/04/08 11:55:11;;;;;;;25.10;22.73;;;10.30;99.90;;;;;;5060996;28;20468;-44
2023/04/08 11:57:37;;;;;;;26.90;24.50;;;10.20;99.90;;;;;;5043140;28;20440;-44
2023/04/08 12:00:06;;;;;;;25.93;23.50;;;10.10;99.90;;;;;;5061188;28;20499;-48
2023/04/08 12:02:32;;;;;;;25.50;23.20;;;10.00;99.90;;;;;;5061322;28;20493;-51
2023/04/08 12:04:58;;;;;;;26.30;23.83;;;10.00;99.90;;;;;;5060148;28;20571;-47
2023/04/08 12:07:23;;;;;;;28.20;25.30;;;10.00;99.90;;;;;;5060963;28;20267;-50
2023/04/08 12:09:49;;;;;;;26.20;23.70;;;9.90;99.90;;;;;;5060777;28;20194;-49
2023/04/08 12:12:15;;;;;;;27.93;25.30;;;9.90;99.90;;;;;;5061187;28;20446;-51
2023/04/08 12:14:41;;;;;;;28.33;25.50;;;9.80;99.90;;;;;;5059077;28;20461;-50
2023/04/08 12:17:06;;;;;;;30.80;27.73;;;9.80;99.90;;;;;;5060689;28;20184;-51
2023/04/08 12:19:32;;;;;;;28.10;25.27;;;9.70;99.90;;;;;;5060864;28;20295;-50
2023/04/08 12:21:57;;;;;;;28.77;25.97;;;9.80;99.90;;;;;;5060891;28;20235;-51
2023/04/08 12:24:23;;;;;;;29.40;26.50;;;9.80;99.90;;;;;;5060250;28;20206;-47
2023/04/08 12:26:49;;;;;;;28.80;26.00;;;10.00;99.90;;;;;;5059987;28;20253;-47
2023/04/08 12:29:14;;;;;;;28.20;25.50;;;10.00;99.90;;;;;;5059902;28;20190;-48
2023/04/08 12:31:40;;;;;;;31.63;28.63;;;10.10;99.90;;;;;;5060173;28;20695;-52
2023/04/08 12:34:06;;;;;;;29.13;26.30;;;10.30;99.90;;;;;;5041881;28;20191;-48